Time;durP1;ratioP1;P1;durP2;ratioP2;P2;SDS_P1;SDS_P2;PMS_P1;PMS_P2;Temp;Humidity;BMP_temperature;BMP_pressure;BME280_temperature;BME280_humidity;BME280_pressure;Samples;Min_cycle;Max_cycle;Signal;HPM_P1;HPM_P2
2023/04/23 00:01:06;;;;;;;7.97;6.57;;;;;;;10.69;100.00;100441.16;5062392;28;20085;-65
2023/04/23 00:03:33;;;;;;;8.57;7.00;;;;;;;10.53;100.00;100440.00;5056413;28;20112;-65
2023/04/23 00:05:59;;;;;;;12.25;7.07;;;;;;;10.36;100.00;100440.78;5036964;28;20432;-65
2023/04/23 00:08:26;;;;;;;12.85;8.10;;;;;;;10.34;100.00;100428.88;5053691;28;20111;-65
2023/04/23 00:10:51;;;;;;;11.27;8.50;;;;;;;10.32;100.00;100429.00;5058144;28;20650;-65
2023/04/23 00:13:17;;;;;;;11.68;9.43;;;;;;;10.31;100.00;100429.97;5071258;28;20151;-65
2023/04/23 00:15:43;;;;;;;11.63;8.40;;;;;;;10.39;100.00;100424.88;5070058;28;20514;-65
2023/04/23 00:18:08;;;;;;;14.32;8.93;;;;;;;10.41;100.00;100429.91;5069839;28;20071;-65
2023/04/23 00:20:34;;;;;;;13.35;7.63;;;;;;;10.40;100.00;100431.69;5075640;28;20036;-65
2023/04/23 00:23:00;;;;;;;10.05;7.45;;;;;;;10.35;100.00;100430.50;5066028;28;21208;-65
2023/04/23 00:25:26;;;;;;;11.10;8.55;;;;;;;10.29;100.00;100424.09;5067192;28;20488;-65
2023/04/23 00:27:51;;;;;;;10.02;7.75;;;;;;;10.28;100.00;100430.25;5068631;28;20041;-65
2023/04/23 00:30:17;;;;;;;7.75;6.90;;;;;;;10.22;100.00;100423.84;5067835;28;20132;-65
2023/04/23 00:32:43;;;;;;;9.93;8.40;;;;;;;10.16;100.00;100424.38;5064967;28;20040;-65
2023/04/23 00:35:09;;;;;;;12.38;7.93;;;;;;;10.16;100.00;100431.38;5066150;28;20032;-65
2023/04/23 00:37:34;;;;;;;11.93;7.50;;;;;;;10.11;100.00;100437.00;5064387;28;20070;-65
2023/04/23 00:39:59;;;;;;;11.10;7.70;;;;;;;10.03;100.00;100430.84;5050350;28;20040;-65
2023/04/23 00:42:25;;;;;;;9.95;7.68;;;;;;;9.98;100.00;100433.88;5065977;28;20033;-65
2023/04/23 00:44:51;;;;;;;11.10;7.65;;;;;;;9.97;100.00;100435.66;5071782;28;20555;-65
2023/04/23 00:47:16;;;;;;;9.70;6.93;;;;;;;9.92;100.00;100431.88;5063052;28;20472;-65
2023/04/23 00:49:42;;;;;;;11.02;7.43;;;;;;;9.91;100.00;100440.63;5066244;28;20052;-65
2023/04/23 00:52:08;;;;;;;8.63;7.38;;;;;;;9.89;100.00;100443.38;5060500;28;20086;-65
2023/04/23 00:54:33;;;;;;;10.80;8.43;;;;;;;9.93;100.00;100447.31;5070907;28;20116;-65
2023/04/23 00:56:59;;;;;;;13.23;8.70;;;;;;;10.06;100.00;100447.00;5075952;28;20066;-65
2023/04/23 00:59:25;;;;;;;13.05;8.82;;;;;;;10.19;100.00;100449.31;5063537;28;20107;-65
2023/04/23 01:01:51;;;;;;;11.52;8.15;;;;;;;10.24;100.00;100441.94;5068254;28;20036;-65
2023/04/23 01:04:18;;;;;;;10.68;8.07;;;;;;;10.24;100.00;100447.13;5061995;28;20060;-65
2023/04/23 01:06:46;;;;;;;9.65;8.50;;;;;;;10.22;100.00;100439.47;5063253;28;20032;-65
2023/04/23 01:09:12;;;;;;;12.43;8.93;;;;;;;10.20;100.00;100445.78;5068535;28;20029;-65
2023/04/23 01:11:41;;;;;;;11.50;8.73;;;;;;;10.26;100.00;100445.22;5058765;28;20123;-65
2023/04/23 01:14:07;;;;;;;12.20;9.20;;;;;;;10.25;100.00;100441.78;5063613;28;20337;-65
2023/04/23 01:16:34;;;;;;;11.60;8.55;;;;;;;10.18;100.00;100440.69;5063026;28;20446;-65
2023/04/23 01:19:01;;;;;;;10.65;8.30;;;;;;;10.06;100.00;100438.38;5070503;28;20135;-65
2023/04/23 01:21:28;;;;;;;10.82;9.00;;;;;;;10.00;100.00;100431.97;5059060;28;20029;-65
2023/04/23 01:23:53;;;;;;;9.52;7.82;;;;;;;9.97;100.00;100432.25;5071607;28;20143;-65
2023/04/23 01:26:19;;;;;;;9.77;7.90;;;;;;;9.96;100.00;100433.19;5060480;28;20041;-65
2023/04/23 01:28:46;;;;;;;9.60;8.13;;;;;;;9.97;100.00;100434.84;5060155;28;20112;-65
2023/04/23 01:31:14;;;;;;;13.30;7.72;;;;;;;10.00;100.00;100431.97;5065390;28;20039;-65
2023/04/23 01:33:40;;;;;;;10.43;7.95;;;;;;;9.99;100.00;100433.75;5067281;28;20028;-65
2023/04/23 01:36:07;;;;;;;11.25;7.72;;;;;;;10.02;100.00;100435.25;5064413;28;20349;-65
2023/04/23 01:38:34;;;;;;;10.57;7.55;;;;;;;10.03;100.00;100428.25;5065537;28;20396;-66
2023/04/23 01:41:00;;;;;;;10.07;7.65;;;;;;;10.01;100.00;100428.41;5060810;28;20041;-65
2023/04/23 01:43:26;;;;;;;11.48;7.75;;;;;;;9.88;100.00;100422.69;5063870;28;24649;-65
2023/04/23 01:45:52;;;;;;;10.38;7.82;;;;;;;9.82;100.00;100423.25;5048489;28;20124;-65
2023/04/23 01:48:18;;;;;;;10.43;7.53;;;;;;;9.84;100.00;100419.56;5062444;28;20436;-65
2023/04/23 01:50:43;;;;;;;8.68;7.15;;;;;;;9.87;100.00;100423.66;5062679;28;20039;-65
2023/04/23 01:53:09;;;;;;;10.88;7.63;;;;;;;9.84;100.00;100422.16;5064917;28;20036;-65
2023/04/23 01:55:38;;;;;;;8.23;6.50;;;;;;;9.82;100.00;100416.28;5068453;28;20085;-65
2023/04/23 01:58:03;;;;;;;11.48;8.25;;;;;;;9.78;100.00;100416.69;5065184;28;20112;-65
2023/04/23 02:00:29;;;;;;;9.05;7.60;;;;;;;9.74;100.00;100413.56;5060440;28;20128;-65
2023/04/23 02:02:55;;;;;;;9.13;7.45;;;;;;;9.70;100.00;100414.78;5067342;28;20115;-65
2023/04/23 02:05:21;;;;;;;9.18;7.55;;;;;;;9.67;100.00;100422.06;5058547;28;20049;-65
2023/04/23 02:07:49;;;;;;;10.45;7.18;;;;;;;9.63;100.00;100416.31;5063634;28;20469;-65
2023/04/23 02:10:15;;;;;;;9.38;7.57;;;;;;;9.59;100.00;100420.97;5063663;28;20035;-66
2023/04/23 02:12:41;;;;;;;8.65;7.70;;;;;;;9.54;100.00;100414.53;5060966;28;20123;-65
2023/04/23 02:15:08;;;;;;;9.80;8.18;;;;;;;9.45;100.00;100407.59;5053777;28;20040;-65
2023/04/23 02:17:34;;;;;;;9.27;7.72;;;;;;;9.43;100.00;100409.50;5056220;28;20024;-65
2023/04/23 02:20:00;;;;;;;9.85;8.25;;;;;;;9.40;100.00;100413.19;5056475;28;20094;-65
2023/04/23 02:22:27;;;;;;;9.52;8.05;;;;;;;9.31;100.00;100401.03;5057012;28;20060;-65
2023/04/23 02:24:53;;;;;;;14.85;8.20;;;;;;;9.33;100.00;100393.91;5045088;28;20399;-65
2023/04/23 02:27:19;;;;;;;9.45;7.88;;;;;;;9.38;100.00;100393.50;5057969;28;20060;-65
2023/04/23 02:29:45;;;;;;;13.35;8.32;;;;;;;9.43;100.00;100394.72;5058698;28;20051;-65
2023/04/23 02:32:10;;;;;;;9.77;7.65;;;;;;;9.42;100.00;100395.69;5060045;28;20090;-65
2023/04/23 02:34:36;;;;;;;9.25;7.65;;;;;;;9.40;100.00;100388.97;5065185;28;20039;-65
2023/04/23 02:37:03;;;;;;;12.55;8.13;;;;;;;9.38;100.00;100396.91;5061006;28;20094;-65
2023/04/23 02:39:30;;;;;;;9.43;7.55;;;;;;;9.31;100.00;100401.84;5057905;28;20119;-65
2023/04/23 02:41:55;;;;;;;11.90;8.05;;;;;;;9.29;100.00;100408.13;5063657;28;20060;-65
2023/04/23 02:44:21;;;;;;;10.65;6.93;;;;;;;9.28;100.00;100396.09;5052421;28;20517;-65
2023/04/23 02:46:46;;;;;;;11.77;8.52;;;;;;;9.27;100.00;100397.88;5056040;28;20494;-65
2023/04/23 02:49:13;;;;;;;9.48;8.35;;;;;;;9.24;100.00;100399.94;5058697;28;20551;-65
2023/04/23 02:51:39;;;;;;;10.15;7.47;;;;;;;9.23;100.00;100393.91;5065901;28;20025;-65
2023/04/23 02:54:04;;;;;;;9.77;7.75;;;;;;;9.22;100.00;100397.47;5066374;28;20040;-65
2023/04/23 02:56:30;;;;;;;9.55;7.18;;;;;;;9.27;100.00;100400.47;5057940;28;20036;-65
2023/04/23 02:58:56;;;;;;;9.32;7.85;;;;;;;9.30;100.00;100400.19;5065872;28;20093;-65
2023/04/23 03:01:21;;;;;;;9.43;7.13;;;;;;;9.37;100.00;100400.47;5068412;28;20097;-65
2023/04/23 03:03:47;;;;;;;9.95;7.18;;;;;;;9.42;100.00;100402.66;5060010;28;20131;-65
2023/04/23 03:06:12;;;;;;;9.45;7.15;;;;;;;9.43;100.00;100397.31;5070534;28;20079;-65
2023/04/23 03:08:38;;;;;;;9.13;7.72;;;;;;;9.49;100.00;100401.94;5079542;28;20048;-65
2023/04/23 03:11:03;;;;;;;12.18;7.13;;;;;;;9.56;100.00;100397.00;5070648;28;20248;-65
2023/04/23 03:13:29;;;;;;;10.10;7.38;;;;;;;9.63;100.00;100391.13;5066345;28;20094;-65
2023/04/23 03:15:55;;;;;;;9.82;7.22;;;;;;;9.68;100.00;100398.50;5073736;28;20463;-65
2023/04/23 03:18:20;;;;;;;9.73;7.35;;;;;;;9.62;100.00;100392.06;5070413;28;20024;-65
2023/04/23 03:20:46;;;;;;;8.25;7.35;;;;;;;9.61;100.00;100392.22;5068099;28;20383;-65
2023/04/23 03:23:12;;;;;;;9.55;7.28;;;;;;;9.59;100.00;100386.31;5069920;28;20043;-65
2023/04/23 03:25:37;;;;;;;11.57;8.60;;;;;;;9.59;100.00;100381.94;5058067;28;20075;-65
2023/04/23 03:28:03;;;;;;;10.73;7.53;;;;;;;9.61;100.00;100387.84;5065755;28;20040;-65
2023/04/23 03:30:29;;;;;;;10.23;8.45;;;;;;;9.62;100.00;100381.66;5064939;28;20474;-65
2023/04/23 03:32:56;;;;;;;8.55;7.32;;;;;;;9.58;100.00;100387.28;5066346;28;20370;-65
2023/04/23 03:35:22;;;;;;;10.05;7.75;;;;;;;9.57;100.00;100386.47;5069147;28;20025;-65
2023/04/23 03:37:47;;;;;;;9.23;7.68;;;;;;;9.60;100.00;100380.97;5072087;28;20126;-65
2023/04/23 03:40:13;;;;;;;8.05;7.18;;;;;;;9.64;100.00;100392.75;5068144;28;20462;-65
2023/04/23 03:42:38;;;;;;;9.75;6.70;;;;;;;9.71;100.00;100387.00;5061593;28;20025;-65
2023/04/23 03:45:04;;;;;;;9.68;8.07;;;;;;;9.75;100.00;100391.78;5070417;28;20043;-65
2023/04/23 03:47:30;;;;;;;10.27;7.68;;;;;;;9.90;100.00;100392.16;5069586;28;20067;-65
2023/04/23 03:49:56;;;;;;;12.05;9.00;;;;;;;10.10;100.00;100393.72;5069263;28;20052;-65
2023/04/23 03:52:21;;;;;;;14.02;8.68;;;;;;;10.26;100.00;100386.13;5066412;28;20383;-65
2023/04/23 03:54:47;;;;;;;15.50;11.82;;;;;;;10.41;100.00;100396.06;5069706;28;20161;-65
2023/04/23 03:57:13;;;;;;;14.23;10.27;;;;;;;10.47;100.00;100393.69;5060644;28;20457;-65
2023/04/23 03:59:38;;;;;;;15.38;11.90;;;;;;;10.53;100.00;100394.91;5067423;28;20032;-65
2023/04/23 04:02:04;;;;;;;16.58;11.13;;;;;;;10.54;100.00;100389.53;5073971;28;20068;-65
2023/04/23 04:04:30;;;;;;;18.58;11.88;;;;;;;10.57;100.00;100391.03;5067102;28;20079;-65
2023/04/23 04:06:56;;;;;;;14.98;10.70;;;;;;;10.58;100.00;100392.69;5050104;28;20061;-65
2023/04/23 04:09:22;;;;;;;15.48;11.15;;;;;;;10.59;100.00;100389.94;5077426;28;20533;-65
2023/04/23 04:11:47;;;;;;;15.93;10.38;;;;;;;10.63;100.00;100390.44;5065636;28;20467;-65
2023/04/23 04:14:13;;;;;;;18.15;11.98;;;;;;;10.66;100.00;100391.94;5061301;28;20025;-65
2023/04/23 04:16:38;;;;;;;20.30;10.38;;;;;;;10.68;100.00;100392.63;5066965;28;20036;-65
2023/04/23 04:19:04;;;;;;;14.57;9.52;;;;;;;10.72;100.00;100394.78;5074130;28;20040;-65
2023/04/23 04:21:31;;;;;;;13.65;10.23;;;;;;;10.72;100.00;100393.97;5065482;28;20027;-65
2023/04/23 04:23:56;;;;;;;10.07;8.50;;;;;;;10.73;100.00;100388.63;5062658;28;20045;-66
2023/04/23 04:26:22;;;;;;;12.18;8.82;;;;;;;10.71;100.00;100393.16;5064074;28;20089;-65
2023/04/23 04:28:47;;;;;;;14.45;8.07;;;;;;;10.74;100.00;100386.81;5062876;28;20469;-65
2023/04/23 04:31:14;;;;;;;11.45;8.38;;;;;;;10.72;100.00;100394.78;5064730;28;20568;-65
2023/04/23 04:33:40;;;;;;;9.40;7.57;;;;;;;10.68;100.00;100390.03;5066934;28;20123;-65
2023/04/23 04:36:08;;;;;;;9.35;7.15;;;;;;;10.58;100.00;100397.88;5067377;28;20120;-65
2023/04/23 04:38:36;;;;;;;10.13;7.38;;;;;;;10.52;100.00;100390.66;5064168;28;20495;-65
2023/04/23 04:41:02;;;;;;;9.40;6.85;;;;;;;10.58;100.00;100390.06;5068836;28;20357;-65
2023/04/23 04:43:27;;;;;;;8.07;6.72;;;;;;;10.61;100.00;100395.00;5073783;28;20131;-65
2023/04/23 04:45:53;;;;;;;10.23;7.38;;;;;;;10.56;100.00;100395.44;5063856;28;20382;-65
2023/04/23 04:48:19;;;;;;;13.48;8.73;;;;;;;10.59;100.00;100392.53;5065405;28;20058;-65
2023/04/23 04:50:45;;;;;;;15.48;9.35;;;;;;;10.67;100.00;100399.63;5057362;28;20055;-65
2023/04/23 04:53:11;;;;;;;14.18;9.90;;;;;;;10.69;100.00;100389.88;5060164;28;20421;-65
2023/04/23 04:55:36;;;;;;;19.25;11.10;;;;;;;10.79;100.00;100395.84;5036315;28;20115;-65
2023/04/23 04:58:02;;;;;;;19.50;11.02;;;;;;;10.89;100.00;100400.97;5059474;28;20029;-65
2023/04/23 05:00:29;;;;;;;20.00;11.07;;;;;;;10.96;100.00;100408.06;5059767;28;20318;-65
2023/04/23 05:02:57;;;;;;;19.45;12.20;;;;;;;11.02;100.00;100401.44;5067009;28;20024;-65
2023/04/23 05:05:24;;;;;;;22.55;12.57;;;;;;;11.09;100.00;100396.44;5059020;28;20437;-65
2023/04/23 05:07:50;;;;;;;22.63;12.05;;;;;;;11.15;100.00;100401.06;5061529;28;20433;-65
2023/04/23 05:10:16;;;;;;;21.73;12.52;;;;;;;11.21;100.00;100400.47;5049980;28;20072;-65
2023/04/23 05:12:42;;;;;;;22.48;12.02;;;;;;;11.23;100.00;100399.34;5055047;28;20120;-65
2023/04/23 05:15:09;;;;;;;19.05;11.82;;;;;;;11.28;100.00;100406.72;5064227;28;20115;-66
2023/04/23 05:17:36;;;;;;;20.92;11.80;;;;;;;11.32;100.00;100410.66;5059608;28;20029;-65
2023/04/23 05:20:01;;;;;;;16.60;11.23;;;;;;;11.35;100.00;100410.34;5053854;28;20049;-65
2023/04/23 05:22:27;;;;;;;17.90;10.70;;;;;;;11.41;100.00;100412.34;5058553;28;20546;-65
2023/04/23 05:24:52;;;;;;;16.05;11.48;;;;;;;11.43;100.00;100405.19;5060143;28;20480;-64
2023/04/23 05:27:18;;;;;;;15.68;10.57;;;;;;;11.48;100.00;100417.78;5033505;28;20029;-65
2023/04/23 05:29:44;;;;;;;15.48;10.38;;;;;;;11.49;100.00;100416.81;5051288;28;20033;-65
2023/04/23 05:32:09;;;;;;;13.40;9.20;;;;;;;11.50;100.00;100410.63;5060324;28;20024;-65
2023/04/23 05:34:35;;;;;;;16.05;9.73;;;;;;;11.54;100.00;100407.56;5067659;28;20083;-65
2023/04/23 05:37:01;;;;;;;13.75;10.15;;;;;;;11.62;100.00;100412.03;5057664;28;20060;-65
2023/04/23 05:39:27;;;;;;;13.68;9.35;;;;;;;11.65;100.00;100409.13;5048747;28;20399;-65
2023/04/23 05:41:52;;;;;;;13.60;9.85;;;;;;;11.70;100.00;100403.44;5042850;28;20102;-65
2023/04/23 05:44:18;;;;;;;14.20;9.70;;;;;;;11.77;100.00;100412.34;5062983;28;20032;-65
2023/04/23 05:46:43;;;;;;;14.60;9.95;;;;;;;11.85;100.00;100404.53;5060487;28;20113;-65
2023/04/23 05:49:08;;;;;;;14.68;9.15;;;;;;;11.91;100.00;100406.53;5060040;28;20056;-65
2023/04/23 05:51:34;;;;;;;14.85;9.82;;;;;;;11.93;100.00;100410.63;5056205;28;20021;-65
2023/04/23 05:53:59;;;;;;;14.15;8.65;;;;;;;11.94;100.00;100419.28;5062214;28;20036;-65
2023/04/23 05:56:25;;;;;;;13.40;9.30;;;;;;;11.94;100.00;100414.03;5056064;28;20873;-65
2023/04/23 05:58:51;;;;;;;14.32;9.70;;;;;;;11.93;100.00;100412.41;5060149;28;20035;-65
2023/04/23 06:01:16;;;;;;;17.00;9.70;;;;;;;11.92;100.00;100416.00;5066360;28;20484;-64
2023/04/23 06:03:44;;;;;;;12.90;9.27;;;;;;;11.95;100.00;100426.13;5071713;28;20032;-65
2023/04/23 06:06:12;;;;;;;11.98;9.00;;;;;;;11.98;100.00;100422.41;5063125;28;20041;-65
2023/04/23 06:08:38;;;;;;;14.65;10.35;;;;;;;11.95;100.00;100429.56;5065028;28;20056;-65
2023/04/23 06:11:04;;;;;;;16.38;9.20;;;;;;;11.95;100.00;100426.13;5067468;28;20089;-65
2023/04/23 06:13:30;;;;;;;12.73;9.18;;;;;;;12.01;100.00;100424.69;5069515;28;20040;-65
2023/04/23 06:15:56;;;;;;;14.68;10.27;;;;;;;12.05;100.00;100426.03;5062369;28;20035;-65
2023/04/23 06:18:21;;;;;;;12.77;9.38;;;;;;;12.12;100.00;100427.88;5056547;28;20040;-65
2023/04/23 06:20:47;;;;;;;13.48;8.93;;;;;;;12.21;100.00;100432.16;5068706;28;20036;-66
2023/04/23 06:23:13;;;;;;;18.63;9.95;;;;;;;12.29;100.00;100428.75;5062642;28;20526;-65
2023/04/23 06:25:39;;;;;;;11.73;9.32;;;;;;;12.40;100.00;100425.03;5062534;28;20029;-66
2023/04/23 06:28:05;;;;;;;14.63;9.35;;;;;;;12.45;100.00;100426.22;5065428;28;20036;-66
2023/04/23 06:30:30;;;;;;;13.70;10.25;;;;;;;12.53;100.00;100421.03;5051847;28;20035;-67
2023/04/23 06:32:56;;;;;;;13.43;9.25;;;;;;;12.62;100.00;100430.53;5060638;28;20487;-66
2023/04/23 06:35:21;;;;;;;10.32;8.40;;;;;;;12.77;100.00;100422.88;5064999;28;20030;-66
2023/04/23 06:37:47;;;;;;;10.25;8.65;;;;;;;12.84;100.00;100421.25;5062480;28;20020;-65
2023/04/23 06:40:13;;;;;;;14.20;8.52;;;;;;;12.90;100.00;100423.22;5060087;28;20154;-66
2023/04/23 06:42:38;;;;;;;9.52;8.20;;;;;;;12.95;100.00;100428.00;5064166;28;21345;-66
2023/04/23 06:45:05;;;;;;;12.55;8.18;;;;;;;13.03;100.00;100422.78;5064011;28;20086;-66
2023/04/23 06:47:30;;;;;;;10.68;8.00;;;;;;;13.18;100.00;100425.63;5062369;28;20032;-66
2023/04/23 06:49:58;;;;;;;10.90;7.93;;;;;;;13.41;100.00;100426.59;5063055;28;20036;-66
2023/04/23 06:52:24;;;;;;;9.02;7.30;;;;;;;13.51;100.00;100427.25;5049411;28;20043;-66
2023/04/23 06:54:49;;;;;;;11.65;7.20;;;;;;;13.57;100.00;100426.59;5059358;28;20040;-66
2023/04/23 06:57:15;;;;;;;11.43;7.20;;;;;;;13.53;99.29;100425.28;5064656;28;21463;-66
2023/04/23 06:59:40;;;;;;;10.98;7.28;;;;;;;13.60;99.35;100423.66;5068942;28;20027;-66
2023/04/23 07:02:06;;;;;;;9.10;7.18;;;;;;;13.66;98.58;100426.59;5066966;28;20028;-66
2023/04/23 07:04:31;;;;;;;9.68;7.05;;;;;;;13.68;98.59;100427.25;5077218;28;20041;-66
2023/04/23 07:06:57;;;;;;;8.07;5.95;;;;;;;13.70;98.91;100420.03;5066290;28;20037;-67
2023/04/23 07:09:22;;;;;;;7.43;6.63;;;;;;;13.69;98.60;100421.03;5062431;28;20033;-66
2023/04/23 07:11:48;;;;;;;7.38;5.95;;;;;;;13.72;98.55;100423.28;5070064;28;20032;-66
2023/04/23 07:14:13;;;;;;;9.88;6.88;;;;;;;13.76;98.30;100414.13;5064506;28;20257;-66
2023/04/23 07:16:39;;;;;;;10.88;6.63;;;;;;;13.80;97.77;100428.50;5058820;28;20035;-66
2023/04/23 07:19:04;;;;;;;9.93;7.15;;;;;;;13.80;97.11;100426.72;5069430;28;20025;-66
2023/04/23 07:21:31;;;;;;;9.82;7.93;;;;;;;13.84;97.43;100416.72;5067516;28;20101;-66
2023/04/23 07:24:05;;;;;;;10.55;7.13;;;;;;;13.77;97.42;100419.19;5064954;28;20495;-66
2023/04/23 07:26:34;;;;;;;8.57;7.07;;;;;;;13.77;96.93;100421.81;5065555;28;20451;-66
2023/04/23 07:29:00;;;;;;;9.30;7.70;;;;;;;13.82;97.39;100423.94;5069379;28;20033;-66
2023/04/23 07:31:26;;;;;;;10.27;7.43;;;;;;;13.95;98.13;100424.22;5066107;28;20132;-66
2023/04/23 07:33:51;;;;;;;9.38;7.38;;;;;;;14.03;97.48;100426.84;5066942;28;21662;-65
2023/04/23 07:36:16;;;;;;;11.98;7.60;;;;;;;14.04;97.13;100423.22;5069754;28;20038;-65
2023/04/23 07:38:42;;;;;;;8.77;6.90;;;;;;;14.11;97.15;100423.38;5068397;28;20031;-66
2023/04/23 07:41:07;;;;;;;7.70;6.57;;;;;;;14.12;96.63;100431.06;5058337;28;20039;-66
2023/04/23 07:43:33;;;;;;;11.63;6.47;;;;;;;14.17;96.67;100428.78;5067413;28;20081;-65
2023/04/23 07:45:59;;;;;;;10.48;7.90;;;;;;;14.20;96.11;100438.88;5067844;28;20511;-66
2023/04/23 07:48:24;;;;;;;7.10;6.28;;;;;;;14.23;96.28;100433.31;5069126;28;20098;-66
2023/04/23 07:50:50;;;;;;;9.25;6.90;;;;;;;14.33;95.07;100440.16;5070729;28;20094;-65
2023/04/23 07:53:15;;;;;;;7.00;6.18;;;;;;;14.42;94.14;100437.38;5071245;28;20047;-66
2023/04/23 07:55:41;;;;;;;9.60;6.60;;;;;;;14.51;93.75;100432.94;5062825;28;20117;-66
2023/04/23 07:58:06;;;;;;;8.75;6.35;;;;;;;14.57;93.07;100433.06;5065601;28;20419;-65
2023/04/23 08:00:32;;;;;;;7.45;6.07;;;;;;;14.64;92.80;100435.81;5061958;28;20473;-66
2023/04/23 08:02:57;;;;;;;6.22;5.22;;;;;;;14.70;92.37;100437.72;5074032;28;20036;-66
2023/04/23 08:05:23;;;;;;;8.73;5.82;;;;;;;14.81;91.62;100429.47;5069087;28;20074;-66
2023/04/23 08:07:48;;;;;;;6.78;5.68;;;;;;;14.93;90.68;100429.91;5075039;28;20051;-65
2023/04/23 08:10:13;;;;;;;7.70;6.45;;;;;;;15.04;90.35;100432.13;5068944;28;20032;-66
2023/04/23 08:12:39;;;;;;;9.32;5.70;;;;;;;15.05;89.34;100425.91;5068477;28;20028;-66
2023/04/23 08:15:05;;;;;;;6.65;5.20;;;;;;;15.15;88.62;100438.78;5061484;28;20020;-66
2023/04/23 08:17:31;;;;;;;5.97;5.30;;;;;;;15.26;88.56;100438.38;5071766;28;20258;-66
2023/04/23 08:19:56;;;;;;;8.00;4.95;;;;;;;15.34;88.12;100430.44;5071457;28;20471;-67
2023/04/23 08:22:22;;;;;;;8.18;5.47;;;;;;;15.51;86.59;100425.88;5064858;28;20119;-66
2023/04/23 08:24:47;;;;;;;7.30;5.65;;;;;;;15.82;85.01;100425.78;5070574;28;20090;-69
2023/04/23 08:27:12;;;;;;;7.93;5.40;;;;;;;16.20;83.99;100424.69;5070877;28;20180;-67
2023/04/23 08:29:38;;;;;;;6.03;4.90;;;;;;;16.64;81.11;100426.47;5067746;28;20103;-67
2023/04/23 08:32:03;;;;;;;7.10;5.15;;;;;;;16.95;79.46;100426.22;5070911;28;20047;-67
2023/04/23 08:34:29;;;;;;;5.47;4.25;;;;;;;17.28;78.80;100413.38;5070543;28;20048;-67
2023/04/23 08:36:54;;;;;;;6.43;4.35;;;;;;;17.30;77.34;100411.38;5070016;28;20037;-67
2023/04/23 08:39:20;;;;;;;5.50;4.65;;;;;;;17.46;75.90;100405.03;5072885;28;20024;-67
2023/04/23 08:41:54;;;;;;;7.43;5.55;;;;;;;17.82;71.72;100407.53;5069554;28;20035;-67
2023/04/23 08:44:24;;;;;;;5.95;4.93;;;;;;;18.01;69.47;100406.81;5069251;28;20040;-68
2023/04/23 08:46:52;;;;;;;8.45;5.47;;;;;;;17.98;70.92;100409.84;5069669;28;20396;-67
2023/04/23 08:49:18;;;;;;;9.23;6.00;;;;;;;17.89;71.19;100401.31;5067553;28;20036;-67
2023/04/23 08:51:53;;;;;;;6.75;5.72;;;;;;;17.88;68.82;100404.13;5069645;28;20028;-67
2023/04/23 08:54:31;;;;;;;7.43;5.03;;;;;;;18.29;69.15;100405.97;5066945;28;20551;-67
2023/04/23 08:56:57;;;;;;;6.85;5.03;;;;;;;18.67;69.25;100415.06;5071234;28;20087;-67
2023/04/23 08:59:25;;;;;;;6.90;4.68;;;;;;;18.62;68.24;100404.28;5067918;28;20036;-67
2023/04/23 09:01:52;;;;;;;7.80;3.80;;;;;;;18.61;70.51;100409.75;5067617;28;20511;-67
2023/04/23 09:04:19;;;;;;;4.82;3.15;;;;;;;18.82;70.37;100407.00;5068500;28;20161;-67
2023/04/23 09:06:45;;;;;;;4.50;3.00;;;;;;;18.99;70.10;100404.78;5071492;28;20059;-67
2023/04/23 09:09:14;;;;;;;8.10;2.97;;;;;;;19.04;70.38;100404.97;5062809;28;20409;-68
2023/04/23 09:11:40;;;;;;;5.30;2.63;;;;;;;18.89;71.07;100398.09;5048987;28;20035;-68
2023/04/23 09:14:07;;;;;;;4.13;3.33;;;;;;;18.53;71.45;100397.53;5066716;28;20403;-67
2023/04/23 09:16:32;;;;;;;4.35;3.30;;;;;;;18.14;71.37;100404.25;5069000;28;20028;-68
2023/04/23 09:18:58;;;;;;;4.72;3.08;;;;;;;18.15;72.22;100405.91;5063851;28;20036;-68
2023/04/23 09:21:23;;;;;;;6.28;2.92;;;;;;;18.29;71.84;100408.59;5068192;28;20296;-68
2023/04/23 09:23:51;;;;;;;3.00;2.40;;;;;;;18.42;71.76;100408.66;5062539;28;20041;-68
2023/04/23 09:26:21;;;;;;;3.38;2.70;;;;;;;18.61;71.32;100400.03;5067416;28;20039;-68
2023/04/23 09:28:49;;;;;;;4.40;2.20;;;;;;;18.68;70.46;100398.22;5069835;28;20530;-68
2023/04/23 09:31:19;;;;;;;3.92;1.65;;;;;;;18.88;69.79;100400.91;5069221;28;20151;-68
2023/04/23 09:33:51;;;;;;;2.35;1.75;;;;;;;19.10;67.74;100399.72;5063399;28;20048;-68
2023/04/23 09:36:20;;;;;;;3.95;1.65;;;;;;;19.36;66.98;100398.13;5064003;28;20029;-68
2023/04/23 09:38:46;;;;;;;3.60;1.17;;;;;;;19.22;64.48;100402.56;5058144;28;20425;-69
2023/04/23 09:41:25;;;;;;;2.38;1.50;;;;;;;18.98;59.67;100397.88;5072373;28;20044;-68
2023/04/23 09:43:55;;;;;;;1.70;1.20;;;;;;;18.76;63.16;100391.94;5068409;28;20032;-68
2023/04/23 09:46:46;;;;;;;1.48;1.13;;;;;;;18.50;58.54;100382.91;5069221;28;20040;-68
2023/04/23 09:49:13;;;;;;;2.53;1.40;;;;;;;18.68;64.25;100385.03;5055429;28;20044;-68
2023/04/23 09:51:40;;;;;;;3.78;1.63;;;;;;;19.16;65.22;100390.19;5061293;28;20032;-68
2023/04/23 09:54:17;;;;;;;3.55;1.98;;;;;;;19.30;63.57;100386.53;5059050;28;20044;-68
2023/04/23 09:56:47;;;;;;;2.10;1.65;;;;;;;19.48;65.79;100381.44;5067491;28;20405;-68
2023/04/23 09:59:27;;;;;;;5.68;2.20;;;;;;;19.58;64.47;100385.53;5068926;28;20433;-68
2023/04/23 10:01:53;;;;;;;2.17;2.00;;;;;;;19.42;65.44;100389.34;5062918;28;20040;-67
2023/04/23 10:04:23;;;;;;;2.75;2.00;;;;;;;19.62;64.42;100384.91;5067034;28;20036;-67
2023/04/23 10:06:59;;;;;;;3.17;2.38;;;;;;;19.57;63.45;100383.91;5068506;28;20107;-67
2023/04/23 10:09:27;;;;;;;3.13;2.55;;;;;;;19.78;65.00;100383.66;5064252;28;20461;-67
2023/04/23 10:11:54;;;;;;;2.20;1.83;;;;;;;20.00;63.36;100381.56;5068449;28;20544;-67
2023/04/23 10:14:24;;;;;;;1.80;1.65;;;;;;;19.92;65.63;100379.16;5068434;28;20093;-68
2023/04/23 10:16:51;;;;;;;2.40;1.90;;;;;;;19.96;65.67;100383.00;5068366;28;20024;-67
2023/04/23 10:19:21;;;;;;;1.83;1.73;;;;;;;19.80;63.84;100379.00;5068346;28;20048;-67
2023/04/23 10:21:54;;;;;;;1.98;1.80;;;;;;;19.73;63.30;100381.66;5068421;28;20035;-67
2023/04/23 10:24:23;;;;;;;1.60;1.50;;;;;;;19.90;64.49;100382.00;5066516;28;20032;-67
2023/04/23 10:26:51;;;;;;;3.35;1.30;;;;;;;20.06;63.47;100380.75;5067913;28;20029;-67
2023/04/23 10:29:24;;;;;;;2.85;1.40;;;;;;;19.95;63.41;100376.91;5068196;28;20028;-67
2023/04/23 10:31:51;;;;;;;2.45;1.77;;;;;;;19.76;64.98;100377.78;5064272;28;20112;-68
2023/04/23 10:34:18;;;;;;;3.55;1.80;;;;;;;19.79;64.72;100382.66;5068384;28;20040;-67
2023/04/23 10:36:43;;;;;;;1.52;1.40;;;;;;;19.92;64.35;100372.03;5068863;28;20447;-68
2023/04/23 10:39:09;;;;;;;1.17;0.80;;;;;;;19.97;63.72;100377.50;5068609;28;20021;-67
2023/04/23 10:41:37;;;;;;;2.38;1.20;;;;;;;20.01;63.69;100376.06;5068872;28;20036;-67
2023/04/23 10:44:04;;;;;;;2.33;1.13;;;;;;;20.06;62.92;100378.91;5067877;28;20085;-67
2023/04/23 10:46:31;;;;;;;2.53;0.90;;;;;;;19.90;62.63;100374.06;5068326;28;20107;-67
2023/04/23 10:49:15;;;;;;;1.98;1.00;;;;;;;19.86;61.00;100368.38;5066370;28;20073;-67
2023/04/23 10:51:44;;;;;;;1.48;0.70;;;;;;;19.86;62.94;100380.78;5062928;28;20032;-67
2023/04/23 10:54:10;;;;;;;1.10;1.00;;;;;;;19.74;63.14;100375.34;5066838;28;20219;-67
2023/04/23 10:56:40;;;;;;;1.58;0.70;;;;;;;19.57;62.74;100379.44;5068755;28;20934;-67
2023/04/23 10:59:28;;;;;;;2.00;0.63;;;;;;;19.52;63.36;100372.09;5066080;28;20032;-67
2023/04/23 11:01:57;;;;;;;1.33;0.90;;;;;;;19.44;63.46;100374.94;5067381;28;20036;-67
2023/04/23 11:04:27;;;;;;;2.53;1.08;;;;;;;19.39;63.38;100368.63;5067612;28;20052;-67
2023/04/23 11:07:13;;;;;;;2.35;1.05;;;;;;;19.32;60.67;100370.47;5068436;28;20537;-67
2023/04/23 11:09:43;;;;;;;2.15;1.05;;;;;;;19.32;63.26;100371.28;5065707;28;20052;-67
2023/04/23 11:12:31;;;;;;;1.35;1.17;;;;;;;19.41;62.12;100375.34;5073702;28;20094;-67
2023/04/23 11:15:00;;;;;;;4.50;1.10;;;;;;;19.44;61.96;100372.28;5055780;28;20048;-67